sensor_id;sensor_type;location;lat;lon;timestamp;pressure;altitude;pressure_sealevel;temperature;humidity
64967;BME280;51710;38.732;-121.358;2023-07-29T00:00:59;100689.34;;;36.08;23.15
64967;BME280;51710;38.732;-121.358;2023-07-29T00:03:27;100684.28;;;36.02;24.07
64967;BME280;51710;38.732;-121.358;2023-07-29T00:05:55;100678.75;;;36.02;24.05
64967;BME280;51710;38.732;-121.358;2023-07-29T00:08:22;100682.66;;;36.01;23.72
64967;BME280;51710;38.732;-121.358;2023-07-29T00:10:48;100680.03;;;35.96;23.65
64967;BME280;51710;38.732;-121.358;2023-07-29T00:13:14;100679.88;;;35.92;24.15
64967;BME280;51710;38.732;-121.358;2023-07-29T00:15:41;100685.75;;;35.91;24.23
64967;BME280;51710;38.732;-121.358;2023-07-29T00:18:07;100683.13;;;35.86;24.12
64967;BME280;51710;38.732;-121.358;2023-07-29T00:20:34;100673.16;;;35.85;23.65
64967;BME280;51710;38.732;-121.358;2023-07-29T00:23:00;100676.59;;;35.82;24.08
64967;BME280;51710;38.732;-121.358;2023-07-29T00:25:27;100674.31;;;35.84;24.21
64967;BME280;51710;38.732;-121.358;2023-07-29T00:27:56;100666.19;;;35.87;23.83
64967;BME280;51710;38.732;-121.358;2023-07-29T00:30:22;100664.38;;;35.83;24.06
64967;BME280;51710;38.732;-121.358;2023-07-29T00:32:48;100660.78;;;35.74;24.06
64967;BME280;51710;38.732;-121.358;2023-07-29T00:35:15;100661.41;;;35.71;23.58
64967;BME280;51710;38.732;-121.358;2023-07-29T00:37:41;100664.34;;;35.66;23.37
64967;BME280;51710;38.732;-121.358;2023-07-29T00:40:15;100655.56;;;35.64;23.26
64967;BME280;51710;38.732;-121.358;2023-07-29T00:42:45;100658.97;;;35.61;23.63
64967;BME280;51710;38.732;-121.358;2023-07-29T00:45:11;100657.66;;;35.58;23.85
64967;BME280;51710;38.732;-121.358;2023-07-29T00:47:38;100650.63;;;35.52;23.18
64967;BME280;51710;38.732;-121.358;2023-07-29T00:50:06;100658.13;;;35.52;22.51
64967;BME280;51710;38.732;-121.358;2023-07-29T00:52:32;100661.22;;;35.50;22.44
64967;BME280;51710;38.732;-121.358;2023-07-29T00:54:59;100659.28;;;35.51;22.50
64967;BME280;51710;38.732;-121.358;2023-07-29T00:57:25;100647.38;;;35.42;22.44
64967;BME280;51710;38.732;-121.358;2023-07-29T00:59:52;100655.31;;;35.35;23.05
64967;BME280;51710;38.732;-121.358;2023-07-29T01:02:19;100647.47;;;35.28;23.23
64967;BME280;51710;38.732;-121.358;2023-07-29T01:04:49;100649.59;;;35.23;23.26
64967;BME280;51710;38.732;-121.358;2023-07-29T01:13:13;100636.03;;;35.04;23.45
64967;BME280;51710;38.732;-121.358;2023-07-29T01:15:55;100645.28;;;34.99;24.23
64967;BME280;51710;38.732;-121.358;2023-07-29T01:18:29;100645.59;;;34.98;23.80
64967;BME280;51710;38.732;-121.358;2023-07-29T01:21:03;100636.91;;;34.91;24.67
64967;BME280;51710;38.732;-121.358;2023-07-29T01:23:36;100635.44;;;34.85;24.34
64967;BME280;51710;38.732;-121.358;2023-07-29T01:26:03;100638.53;;;34.83;24.79
64967;BME280;51710;38.732;-121.358;2023-07-29T01:28:30;100645.19;;;34.82;24.67
64967;BME280;51710;38.732;-121.358;2023-07-29T01:33:40;100638.97;;;34.77;24.57
64967;BME280;51710;38.732;-121.358;2023-07-29T01:36:13;100639.13;;;34.72;24.56
64967;BME280;51710;38.732;-121.358;2023-07-29T01:38:42;100642.84;;;34.67;24.01
64967;BME280;51710;38.732;-121.358;2023-07-29T01:41:10;100652.09;;;34.63;24.45
64967;BME280;51710;38.732;-121.358;2023-07-29T01:43:37;100652.75;;;34.60;25.03
64967;BME280;51710;38.732;-121.358;2023-07-29T01:46:10;100655.84;;;34.58;24.75
64967;BME280;51710;38.732;-121.358;2023-07-29T01:48:37;100662.03;;;34.55;25.40
64967;BME280;51710;38.732;-121.358;2023-07-29T01:51:04;100650.59;;;34.48;26.08
64967;BME280;51710;38.732;-121.358;2023-07-29T01:53:31;100662.59;;;34.44;26.08
64967;BME280;51710;38.732;-121.358;2023-07-29T01:55:57;100665.97;;;34.41;26.34
64967;BME280;51710;38.732;-121.358;2023-07-29T01:58:24;100655.72;;;34.41;26.36
64967;BME280;51710;38.732;-121.358;2023-07-29T02:00:50;100664.84;;;34.42;26.01
64967;BME280;51710;38.732;-121.358;2023-07-29T02:03:17;100669.38;;;34.38;25.94
64967;BME280;51710;38.732;-121.358;2023-07-29T02:05:43;100672.31;;;34.41;26.31
64967;BME280;51710;38.732;-121.358;2023-07-29T02:08:10;100674.47;;;34.44;26.29
64967;BME280;51710;38.732;-121.358;2023-07-29T02:10:37;100673.94;;;34.42;26.08
64967;BME280;51710;38.732;-121.358;2023-07-29T02:13:03;100678.13;;;34.53;25.51
64967;BME280;51710;38.732;-121.358;2023-07-29T02:15:30;100674.06;;;34.59;25.02
64967;BME280;51710;38.732;-121.358;2023-07-29T02:17:56;100680.38;;;34.51;24.75
64967;BME280;51710;38.732;-121.358;2023-07-29T02:20:25;100681.69;;;34.32;24.47
64967;BME280;51710;38.732;-121.358;2023-07-29T02:22:51;100679.00;;;34.18;24.21
64967;BME280;51710;38.732;-121.358;2023-07-29T02:25:17;100679.91;;;34.05;24.29
64967;BME280;51710;38.732;-121.358;2023-07-29T02:27:43;100676.25;;;33.96;23.54
64967;BME280;51710;38.732;-121.358;2023-07-29T02:30:10;100689.97;;;33.87;23.68
64967;BME280;51710;38.732;-121.358;2023-07-29T02:32:36;100688.56;;;33.76;24.30
64967;BME280;51710;38.732;-121.358;2023-07-29T02:35:03;100692.34;;;33.67;24.03
64967;BME280;51710;38.732;-121.358;2023-07-29T02:37:30;100686.75;;;33.58;24.11
64967;BME280;51710;38.732;-121.358;2023-07-29T02:39:57;100697.22;;;33.48;23.93
64967;BME280;51710;38.732;-121.358;2023-07-29T02:42:23;100702.94;;;33.38;24.27
64967;BME280;51710;38.732;-121.358;2023-07-29T02:44:49;100697.50;;;33.33;24.61
64967;BME280;51710;38.732;-121.358;2023-07-29T02:47:16;100711.53;;;33.50;24.88
64967;BME280;51710;38.732;-121.358;2023-07-29T02:49:42;100698.94;;;33.57;25.27
64967;BME280;51710;38.732;-121.358;2023-07-29T02:52:08;100698.88;;;33.49;25.42
64967;BME280;51710;38.732;-121.358;2023-07-29T02:54:34;100699.06;;;33.39;25.99
64967;BME280;51710;38.732;-121.358;2023-07-29T02:57:01;100697.94;;;33.26;25.28
64967;BME280;51710;38.732;-121.358;2023-07-29T02:59:27;100700.72;;;33.13;25.49
64967;BME280;51710;38.732;-121.358;2023-07-29T03:01:53;100706.50;;;32.97;25.94
64967;BME280;51710;38.732;-121.358;2023-07-29T03:04:19;100712.94;;;32.79;26.30
64967;BME280;51710;38.732;-121.358;2023-07-29T03:06:46;100711.03;;;32.61;26.38
64967;BME280;51710;38.732;-121.358;2023-07-29T03:09:14;100720.19;;;32.43;26.80
64967;BME280;51710;38.732;-121.358;2023-07-29T03:11:40;100714.16;;;32.23;26.82
64967;BME280;51710;38.732;-121.358;2023-07-29T03:14:06;100722.47;;;32.04;26.96
64967;BME280;51710;38.732;-121.358;2023-07-29T03:16:32;100722.13;;;31.87;26.93
64967;BME280;51710;38.732;-121.358;2023-07-29T03:18:58;100718.19;;;31.74;27.47
64967;BME280;51710;38.732;-121.358;2023-07-29T03:21:26;100714.53;;;31.60;27.70
64967;BME280;51710;38.732;-121.358;2023-07-29T03:23:52;100720.44;;;31.49;27.57
64967;BME280;51710;38.732;-121.358;2023-07-29T03:26:18;100723.41;;;31.34;28.01
64967;BME280;51710;38.732;-121.358;2023-07-29T03:28:44;100721.84;;;31.23;28.21
64967;BME280;51710;38.732;-121.358;2023-07-29T03:31:11;100720.88;;;31.14;28.32
64967;BME280;51710;38.732;-121.358;2023-07-29T03:33:37;100728.72;;;31.02;27.98
64967;BME280;51710;38.732;-121.358;2023-07-29T03:36:04;100735.44;;;30.90;27.81
64967;BME280;51710;38.732;-121.358;2023-07-29T03:38:30;100725.06;;;30.82;27.56
64967;BME280;51710;38.732;-121.358;2023-07-29T03:40:58;100724.31;;;30.72;28.00
64967;BME280;51710;38.732;-121.358;2023-07-29T03:43:25;100736.53;;;30.61;27.81
64967;BME280;51710;38.732;-121.358;2023-07-29T03:45:51;100732.44;;;30.53;27.81
64967;BME280;51710;38.732;-121.358;2023-07-29T03:48:17;100732.25;;;30.45;27.83
64967;BME280;51710;38.732;-121.358;2023-07-29T03:50:43;100730.94;;;30.37;28.21
64967;BME280;51710;38.732;-121.358;2023-07-29T03:53:10;100737.88;;;30.30;28.16
64967;BME280;51710;38.732;-121.358;2023-07-29T03:55:36;100733.78;;;30.22;27.97
64967;BME280;51710;38.732;-121.358;2023-07-29T03:58:02;100732.19;;;30.11;27.97
64967;BME280;51710;38.732;-121.358;2023-07-29T04:00:28;100733.94;;;30.02;27.95
64967;BME280;51710;38.732;-121.358;2023-07-29T04:02:55;100745.81;;;29.93;28.55
64967;BME280;51710;38.732;-121.358;2023-07-29T04:05:21;100746.41;;;29.84;28.61
64967;BME280;51710;38.732;-121.358;2023-07-29T04:07:47;100748.66;;;29.77;28.83
64967;BME280;51710;38.732;-121.358;2023-07-29T04:10:14;100751.16;;;29.69;28.69
64967;BME280;51710;38.732;-121.358;2023-07-29T04:12:40;100756.66;;;29.59;28.99
64967;BME280;51710;38.732;-121.358;2023-07-29T04:15:07;100759.16;;;29.50;28.54
64967;BME280;51710;38.732;-121.358;2023-07-29T04:17:33;100757.00;;;29.42;28.73
64967;BME280;51710;38.732;-121.358;2023-07-29T04:19:59;100761.16;;;29.30;28.81
64967;BME280;51710;38.732;-121.358;2023-07-29T04:22:25;100761.22;;;29.20;28.41
64967;BME280;51710;38.732;-121.358;2023-07-29T04:24:52;100766.16;;;29.13;28.80
64967;BME280;51710;38.732;-121.358;2023-07-29T04:27:18;100766.16;;;29.03;28.58
64967;BME280;51710;38.732;-121.358;2023-07-29T04:29:44;100776.88;;;28.94;28.67
64967;BME280;51710;38.732;-121.358;2023-07-29T04:32:11;100784.03;;;28.85;28.80
64967;BME280;51710;38.732;-121.358;2023-07-29T04:34:37;100780.47;;;28.79;28.26
64967;BME280;51710;38.732;-121.358;2023-07-29T04:37:03;100787.03;;;28.73;28.64
64967;BME280;51710;38.732;-121.358;2023-07-29T04:39:29;100790.34;;;28.65;28.56
64967;BME280;51710;38.732;-121.358;2023-07-29T04:41:56;100788.16;;;28.57;28.43
64967;BME280;51710;38.732;-121.358;2023-07-29T04:44:23;100783.16;;;28.49;28.40
64967;BME280;51710;38.732;-121.358;2023-07-29T04:46:49;100785.34;;;28.42;28.13
64967;BME280;51710;38.732;-121.358;2023-07-29T04:49:15;100790.84;;;28.32;28.32
64967;BME280;51710;38.732;-121.358;2023-07-29T04:51:41;100786.97;;;28.23;28.00
64967;BME280;51710;38.732;-121.358;2023-07-29T04:54:07;100797.38;;;28.16;28.30
64967;BME280;51710;38.732;-121.358;2023-07-29T04:56:34;100793.00;;;28.10;28.25
64967;BME280;51710;38.732;-121.358;2023-07-29T04:59:00;100790.75;;;28.02;27.99
64967;BME280;51710;38.732;-121.358;2023-07-29T05:01:26;100791.88;;;27.96;28.53
64967;BME280;51710;38.732;-121.358;2023-07-29T05:03:52;100797.53;;;27.90;28.69
64967;BME280;51710;38.732;-121.358;2023-07-29T05:06:19;100789.59;;;27.83;28.53
64967;BME280;51710;38.732;-121.358;2023-07-29T05:08:46;100798.88;;;27.77;28.20
64967;BME280;51710;38.732;-121.358;2023-07-29T05:11:12;100798.31;;;27.70;28.84
64967;BME280;51710;38.732;-121.358;2023-07-29T05:13:38;100803.50;;;27.66;29.12
64967;BME280;51710;38.732;-121.358;2023-07-29T05:16:05;100801.28;;;27.63;29.05
64967;BME280;51710;38.732;-121.358;2023-07-29T05:18:31;100797.16;;;27.56;29.11
64967;BME280;51710;38.732;-121.358;2023-07-29T05:20:57;100814.06;;;27.48;29.27
64967;BME280;51710;38.732;-121.358;2023-07-29T05:23:24;100807.47;;;27.39;29.15
64967;BME280;51710;38.732;-121.358;2023-07-29T05:25:50;100812.34;;;27.32;29.49
64967;BME280;51710;38.732;-121.358;2023-07-29T05:28:16;100814.22;;;27.26;29.37
64967;BME280;51710;38.732;-121.358;2023-07-29T05:30:43;100813.91;;;27.23;29.70
64967;BME280;51710;38.732;-121.358;2023-07-29T05:33:10;100819.09;;;27.19;29.60
64967;BME280;51710;38.732;-121.358;2023-07-29T05:35:37;100814.16;;;27.16;29.75
64967;BME280;51710;38.732;-121.358;2023-07-29T05:38:03;100812.72;;;27.09;29.96
64967;BME280;51710;38.732;-121.358;2023-07-29T05:40:31;100814.59;;;27.03;30.14
64967;BME280;51710;38.732;-121.358;2023-07-29T05:42:58;100816.47;;;26.98;30.03
64967;BME280;51710;38.732;-121.358;2023-07-29T05:45:24;100828.47;;;26.92;30.40
64967;BME280;51710;38.732;-121.358;2023-07-29T05:47:50;100820.72;;;26.84;30.54
64967;BME280;51710;38.732;-121.358;2023-07-29T05:50:17;100820.13;;;26.77;30.56
64967;BME280;51710;38.732;-121.358;2023-07-29T05:52:43;100814.03;;;26.70;30.65
64967;BME280;51710;38.732;-121.358;2023-07-29T05:55:09;100820.53;;;26.63;30.79
64967;BME280;51710;38.732;-121.358;2023-07-29T05:57:35;100826.22;;;26.57;31.13
64967;BME280;51710;38.732;-121.358;2023-07-29T06:00:02;100831.88;;;26.50;31.18
64967;BME280;51710;38.732;-121.358;2023-07-29T06:02:28;100828.53;;;26.43;31.35
64967;BME280;51710;38.732;-121.358;2023-07-29T06:04:54;100823.28;;;26.37;31.37
64967;BME280;51710;38.732;-121.358;2023-07-29T06:07:20;100825.41;;;26.30;31.54
64967;BME280;51710;38.732;-121.358;2023-07-29T06:09:47;100820.16;;;26.23;31.80
64967;BME280;51710;38.732;-121.358;2023-07-29T06:12:13;100823.31;;;26.15;31.54
64967;BME280;51710;38.732;-121.358;2023-07-29T06:14:39;100819.44;;;26.06;31.76
64967;BME280;51710;38.732;-121.358;2023-07-29T06:17:06;100819.34;;;26.01;31.88
64967;BME280;51710;38.732;-121.358;2023-07-29T06:19:35;100820.94;;;25.97;32.08
64967;BME280;51710;38.732;-121.358;2023-07-29T06:22:01;100819.78;;;25.93;31.95
64967;BME280;51710;38.732;-121.358;2023-07-29T06:24:28;100820.28;;;25.90;32.32
64967;BME280;51710;38.732;-121.358;2023-07-29T06:26:54;100826.28;;;25.87;32.00
64967;BME280;51710;38.732;-121.358;2023-07-29T06:29:20;100827.03;;;25.83;32.41
64967;BME280;51710;38.732;-121.358;2023-07-29T06:31:47;100824.50;;;25.76;32.41
64967;BME280;51710;38.732;-121.358;2023-07-29T06:34:13;100824.69;;;25.70;32.41
64967;BME280;51710;38.732;-121.358;2023-07-29T06:36:39;100823.78;;;25.64;32.92
64967;BME280;51710;38.732;-121.358;2023-07-29T06:39:05;100823.72;;;25.59;32.99
64967;BME280;51710;38.732;-121.358;2023-07-29T06:41:31;100824.72;;;25.53;32.82
64967;BME280;51710;38.732;-121.358;2023-07-29T06:43:58;100824.91;;;25.46;33.05
64967;BME280;51710;38.732;-121.358;2023-07-29T06:46:24;100818.81;;;25.39;33.08
64967;BME280;51710;38.732;-121.358;2023-07-29T06:48:51;100818.16;;;25.32;33.16
64967;BME280;51710;38.732;-121.358;2023-07-29T06:51:17;100812.38;;;25.29;32.96
64967;BME280;51710;38.732;-121.358;2023-07-29T06:53:43;100819.38;;;25.25;32.93
64967;BME280;51710;38.732;-121.358;2023-07-29T06:56:09;100814.44;;;25.22;33.38
64967;BME280;51710;38.732;-121.358;2023-07-29T06:58:36;100812.81;;;25.21;33.15
64967;BME280;51710;38.732;-121.358;2023-07-29T07:01:02;100816.00;;;25.18;33.21
64967;BME280;51710;38.732;-121.358;2023-07-29T07:03:29;100806.13;;;25.12;33.54
64967;BME280;51710;38.732;-121.358;2023-07-29T07:05:55;100812.56;;;25.06;33.74
64967;BME280;51710;38.732;-121.358;2023-07-29T07:08:21;100810.34;;;25.03;33.53
64967;BME280;51710;38.732;-121.358;2023-07-29T07:10:47;100814.88;;;24.97;33.48
64967;BME280;51710;38.732;-121.358;2023-07-29T07:13:14;100818.38;;;24.93;33.89
64967;BME280;51710;38.732;-121.358;2023-07-29T07:15:40;100817.72;;;24.86;33.33
64967;BME280;51710;38.732;-121.358;2023-07-29T07:18:06;100820.38;;;24.81;33.64
64967;BME280;51710;38.732;-121.358;2023-07-29T07:20:33;100821.66;;;24.78;33.96
64967;BME280;51710;38.732;-121.358;2023-07-29T07:23:03;100825.94;;;24.74;34.10
64967;BME280;51710;38.732;-121.358;2023-07-29T07:25:31;100823.97;;;24.70;34.11
64967;BME280;51710;38.732;-121.358;2023-07-29T07:27:58;100824.44;;;24.67;34.23
64967;BME280;51710;38.732;-121.358;2023-07-29T07:30:24;100828.72;;;24.63;33.99
64967;BME280;51710;38.732;-121.358;2023-07-29T07:32:50;100830.53;;;24.57;34.05
64967;BME280;51710;38.732;-121.358;2023-07-29T07:35:16;100838.88;;;24.50;33.92
64967;BME280;51710;38.732;-121.358;2023-07-29T07:37:43;100844.81;;;24.47;33.91
64967;BME280;51710;38.732;-121.358;2023-07-29T07:40:09;100836.31;;;24.44;34.05
64967;BME280;51710;38.732;-121.358;2023-07-29T07:42:35;100852.31;;;24.40;33.99
64967;BME280;51710;38.732;-121.358;2023-07-29T07:45:02;100847.59;;;24.36;34.13
64967;BME280;51710;38.732;-121.358;2023-07-29T07:47:28;100843.47;;;24.33;34.19
64967;BME280;51710;38.732;-121.358;2023-07-29T07:49:54;100845.00;;;24.29;34.47
64967;BME280;51710;38.732;-121.358;2023-07-29T07:52:21;100850.47;;;24.29;34.88
64967;BME280;51710;38.732;-121.358;2023-07-29T07:54:52;100846.31;;;24.27;34.65
64967;BME280;51710;38.732;-121.358;2023-07-29T07:57:20;100849.78;;;24.22;34.31
64967;BME280;51710;38.732;-121.358;2023-07-29T07:59:47;100851.56;;;24.17;34.59
64967;BME280;51710;38.732;-121.358;2023-07-29T08:02:13;100845.78;;;24.13;34.80
64967;BME280;51710;38.732;-121.358;2023-07-29T08:04:39;100842.13;;;24.08;34.39
64967;BME280;51710;38.732;-121.358;2023-07-29T08:07:06;100833.88;;;24.03;34.71
64967;BME280;51710;38.732;-121.358;2023-07-29T08:09:32;100843.38;;;24.00;34.66
64967;BME280;51710;38.732;-121.358;2023-07-29T08:11:58;100844.03;;;23.96;34.78
64967;BME280;51710;38.732;-121.358;2023-07-29T08:14:25;100846.66;;;23.91;34.59
64967;BME280;51710;38.732;-121.358;2023-07-29T08:16:52;100836.28;;;23.88;35.04
64967;BME280;51710;38.732;-121.358;2023-07-29T08:19:18;100832.72;;;23.87;35.09
64967;BME280;51710;38.732;-121.358;2023-07-29T08:21:44;100828.69;;;23.90;35.22
64967;BME280;51710;38.732;-121.358;2023-07-29T08:24:10;100836.28;;;23.88;35.01
64967;BME280;51710;38.732;-121.358;2023-07-29T08:26:37;100837.22;;;23.82;35.15
64967;BME280;51710;38.732;-121.358;2023-07-29T08:29:03;100841.84;;;23.81;35.43
64967;BME280;51710;38.732;-121.358;2023-07-29T08:31:29;100844.00;;;23.79;35.18
64967;BME280;51710;38.732;-121.358;2023-07-29T08:33:59;100843.41;;;23.77;35.50
64967;BME280;51710;38.732;-121.358;2023-07-29T08:36:26;100851.56;;;23.77;35.58
64967;BME280;51710;38.732;-121.358;2023-07-29T08:38:52;100849.91;;;23.76;35.61
64967;BME280;51710;38.732;-121.358;2023-07-29T08:41:26;100849.91;;;23.76;35.83
64967;BME280;51710;38.732;-121.358;2023-07-29T08:44:03;100843.06;;;23.74;35.58
64967;BME280;51710;38.732;-121.358;2023-07-29T08:46:33;100852.41;;;23.66;35.79
64967;BME280;51710;38.732;-121.358;2023-07-29T08:48:59;100858.81;;;23.60;35.96
64967;BME280;51710;38.732;-121.358;2023-07-29T08:51:27;100851.84;;;23.53;36.04
64967;BME280;51710;38.732;-121.358;2023-07-29T08:53:55;100854.69;;;23.46;36.07
64967;BME280;51710;38.732;-121.358;2023-07-29T08:56:22;100861.53;;;23.37;36.20
64967;BME280;51710;38.732;-121.358;2023-07-29T08:58:48;100854.13;;;23.32;36.28
64967;BME280;51710;38.732;-121.358;2023-07-29T09:01:15;100862.13;;;23.27;36.44
64967;BME280;51710;38.732;-121.358;2023-07-29T09:03:42;100857.63;;;23.21;36.46
64967;BME280;51710;38.732;-121.358;2023-07-29T09:06:08;100866.13;;;23.13;36.64
64967;BME280;51710;38.732;-121.358;2023-07-29T09:08:34;100864.34;;;23.07;36.75
64967;BME280;51710;38.732;-121.358;2023-07-29T09:11:01;100866.59;;;22.99;37.23
64967;BME280;51710;38.732;-121.358;2023-07-29T09:13:28;100861.03;;;22.94;37.14
64967;BME280;51710;38.732;-121.358;2023-07-29T09:15:56;100856.53;;;22.88;37.29
64967;BME280;51710;38.732;-121.358;2023-07-29T09:18:23;100853.69;;;22.83;37.42
64967;BME280;51710;38.732;-121.358;2023-07-29T09:20:52;100856.88;;;22.80;37.70
64967;BME280;51710;38.732;-121.358;2023-07-29T09:23:19;100862.19;;;22.75;37.61
64967;BME280;51710;38.732;-121.358;2023-07-29T09:25:48;100858.50;;;22.69;37.81
64967;BME280;51710;38.732;-121.358;2023-07-29T09:28:15;100865.22;;;22.67;37.98
64967;BME280;51710;38.732;-121.358;2023-07-29T09:30:46;100855.19;;;22.67;38.10
64967;BME280;51710;38.732;-121.358;2023-07-29T09:33:13;100862.06;;;22.70;38.05
64967;BME280;51710;38.732;-121.358;2023-07-29T09:35:39;100861.47;;;22.68;38.06
64967;BME280;51710;38.732;-121.358;2023-07-29T09:38:06;100854.97;;;22.69;38.18
64967;BME280;51710;38.732;-121.358;2023-07-29T09:43:03;100856.94;;;22.62;38.23
64967;BME280;51710;38.732;-121.358;2023-07-29T09:45:30;100855.16;;;22.56;38.28
64967;BME280;51710;38.732;-121.358;2023-07-29T09:47:58;100860.44;;;22.51;38.32
64967;BME280;51710;38.732;-121.358;2023-07-29T09:50:25;100863.00;;;22.46;38.44
64967;BME280;51710;38.732;-121.358;2023-07-29T09:52:53;100865.34;;;22.42;38.61
64967;BME280;51710;38.732;-121.358;2023-07-29T09:55:22;100856.88;;;22.39;38.91
64967;BME280;51710;38.732;-121.358;2023-07-29T09:58:00;100864.63;;;22.35;38.97
64967;BME280;51710;38.732;-121.358;2023-07-29T10:00:30;100859.88;;;22.30;39.06
64967;BME280;51710;38.732;-121.358;2023-07-29T10:02:58;100856.56;;;22.28;39.17
64967;BME280;51710;38.732;-121.358;2023-07-29T10:05:28;100854.56;;;22.24;39.22
64967;BME280;51710;38.732;-121.358;2023-07-29T10:07:55;100862.94;;;22.22;39.15
64967;BME280;51710;38.732;-121.358;2023-07-29T10:10:22;100854.66;;;22.17;39.65
64967;BME280;51710;38.732;-121.358;2023-07-29T10:12:50;100863.00;;;22.16;39.34
64967;BME280;51710;38.732;-121.358;2023-07-29T10:15:17;100857.81;;;22.14;39.59
64967;BME280;51710;38.732;-121.358;2023-07-29T10:17:46;100850.97;;;22.12;39.70
64967;BME280;51710;38.732;-121.358;2023-07-29T10:20:12;100853.31;;;22.08;39.63
64967;BME280;51710;38.732;-121.358;2023-07-29T10:22:43;100849.38;;;22.04;39.87
64967;BME280;51710;38.732;-121.358;2023-07-29T10:25:17;100852.81;;;22.00;39.82
64967;BME280;51710;38.732;-121.358;2023-07-29T10:27:56;100852.44;;;21.96;39.80
64967;BME280;51710;38.732;-121.358;2023-07-29T10:30:24;100851.59;;;21.96;40.13
64967;BME280;51710;38.732;-121.358;2023-07-29T10:32:52;100852.06;;;21.93;40.32
64967;BME280;51710;38.732;-121.358;2023-07-29T10:35:19;100858.75;;;21.90;40.41
64967;BME280;51710;38.732;-121.358;2023-07-29T10:37:46;100850.25;;;21.87;40.62
64967;BME280;51710;38.732;-121.358;2023-07-29T10:40:16;100858.84;;;21.84;40.45
64967;BME280;51710;38.732;-121.358;2023-07-29T10:43:07;100850.56;;;21.79;40.46
64967;BME280;51710;38.732;-121.358;2023-07-29T10:45:39;100847.84;;;21.79;40.53
64967;BME280;51710;38.732;-121.358;2023-07-29T10:48:13;100844.31;;;21.78;40.74
64967;BME280;51710;38.732;-121.358;2023-07-29T10:50:39;100855.16;;;21.78;40.43
64967;BME280;51710;38.732;-121.358;2023-07-29T10:53:06;100849.94;;;21.77;40.68
64967;BME280;51710;38.732;-121.358;2023-07-29T10:55:33;100849.09;;;21.76;40.71
64967;BME280;51710;38.732;-121.358;2023-07-29T10:58:12;100852.03;;;21.75;40.71
64967;BME280;51710;38.732;-121.358;2023-07-29T11:00:42;100848.09;;;21.71;40.91
64967;BME280;51710;38.732;-121.358;2023-07-29T11:03:09;100850.25;;;21.69;40.42
64967;BME280;51710;38.732;-121.358;2023-07-29T11:08:21;100850.38;;;21.56;40.85
64967;BME280;51710;38.732;-121.358;2023-07-29T11:11:08;100854.19;;;21.48;40.56
64967;BME280;51710;38.732;-121.358;2023-07-29T11:13:36;100862.63;;;21.40;40.96
64967;BME280;51710;38.732;-121.358;2023-07-29T11:16:03;100863.53;;;21.34;41.04
64967;BME280;51710;38.732;-121.358;2023-07-29T11:18:34;100862.94;;;21.32;41.15
64967;BME280;51710;38.732;-121.358;2023-07-29T11:21:03;100871.09;;;21.25;41.18
64967;BME280;51710;38.732;-121.358;2023-07-29T11:23:34;100863.22;;;21.24;41.59
64967;BME280;51710;38.732;-121.358;2023-07-29T11:26:02;100865.69;;;21.25;41.48
64967;BME280;51710;38.732;-121.358;2023-07-29T11:28:30;100864.44;;;21.28;41.94
64967;BME280;51710;38.732;-121.358;2023-07-29T11:30:57;100869.41;;;21.31;41.93
64967;BME280;51710;38.732;-121.358;2023-07-29T11:33:25;100873.78;;;21.32;41.90
64967;BME280;51710;38.732;-121.358;2023-07-29T11:35:54;100878.13;;;21.33;42.39
64967;BME280;51710;38.732;-121.358;2023-07-29T11:38:22;100882.72;;;21.33;42.10
64967;BME280;51710;38.732;-121.358;2023-07-29T11:43:21;100884.00;;;21.30;42.11
64967;BME280;51710;38.732;-121.358;2023-07-29T11:45:48;100881.53;;;21.29;42.65
64967;BME280;51710;38.732;-121.358;2023-07-29T11:48:14;100892.56;;;21.27;42.52
64967;BME280;51710;38.732;-121.358;2023-07-29T11:50:40;100883.47;;;21.21;42.73
64967;BME280;51710;38.732;-121.358;2023-07-29T11:53:07;100874.13;;;21.17;43.19
64967;BME280;51710;38.732;-121.358;2023-07-29T11:55:33;100881.25;;;21.12;43.05
64967;BME280;51710;38.732;-121.358;2023-07-29T11:58:01;100886.50;;;21.07;42.98
64967;BME280;51710;38.732;-121.358;2023-07-29T12:00:28;100893.19;;;21.04;42.95
64967;BME280;51710;38.732;-121.358;2023-07-29T12:02:55;100887.19;;;21.02;43.21
64967;BME280;51710;38.732;-121.358;2023-07-29T12:05:22;100880.91;;;21.02;43.36
64967;BME280;51710;38.732;-121.358;2023-07-29T12:07:49;100889.06;;;21.02;43.54
64967;BME280;51710;38.732;-121.358;2023-07-29T12:10:16;100897.19;;;21.02;43.52
64967;BME280;51710;38.732;-121.358;2023-07-29T12:12:48;100888.44;;;21.00;43.42
64967;BME280;51710;38.732;-121.358;2023-07-29T12:15:28;100893.44;;;20.96;43.38
64967;BME280;51710;38.732;-121.358;2023-07-29T12:17:56;100895.75;;;20.93;43.38
64967;BME280;51710;38.732;-121.358;2023-07-29T12:20:23;100889.09;;;20.89;44.16
64967;BME280;51710;38.732;-121.358;2023-07-29T12:22:53;100894.34;;;20.84;44.02
64967;BME280;51710;38.732;-121.358;2023-07-29T12:25:20;100901.06;;;20.81;43.97
64967;BME280;51710;38.732;-121.358;2023-07-29T12:27:47;100904.00;;;20.80;44.12
64967;BME280;51710;38.732;-121.358;2023-07-29T12:30:13;100904.00;;;20.80;44.68
64967;BME280;51710;38.732;-121.358;2023-07-29T12:32:46;100906.69;;;20.80;44.19
64967;BME280;51710;38.732;-121.358;2023-07-29T12:35:13;100913.97;;;20.79;44.79
64967;BME280;51710;38.732;-121.358;2023-07-29T12:37:40;100911.50;;;20.78;44.72